createdAt,value
2022-12-31T00:01:20.941Z,5.50
2022-12-31T00:03:49.508Z,2.20
2022-12-31T00:06:22.809Z,2.30
2022-12-31T00:08:52.652Z,3.80
2022-12-31T00:11:21.384Z,1.63
2022-12-31T00:13:49.934Z,1.80
2022-12-31T00:16:21.266Z,1.70
2022-12-31T00:18:50.986Z,1.20
2022-12-31T00:21:20.996Z,1.10
2022-12-31T00:23:49.687Z,1.47
2022-12-31T00:26:19.074Z,1.37
2022-12-31T00:28:47.337Z,1.63
2022-12-31T00:31:17.686Z,1.73
2022-12-31T00:33:46.801Z,1.20
2022-12-31T00:36:17.045Z,1.07
2022-12-31T00:38:47.863Z,1.07
2022-12-31T00:41:17.001Z,1.93
2022-12-31T00:43:45.715Z,0.80
2022-12-31T00:46:14.310Z,0.60
2022-12-31T00:49:07.509Z,0.80
2022-12-31T00:51:35.782Z,0.70
2022-12-31T00:54:05.559Z,0.70
2022-12-31T00:56:33.755Z,1.00
2022-12-31T00:59:02.074Z,0.80
2022-12-31T01:01:31.926Z,0.80
2022-12-31T01:04:02.711Z,0.60
2022-12-31T01:06:30.847Z,0.60
2022-12-31T01:08:59.339Z,0.70
2022-12-31T01:11:30.065Z,0.70
2022-12-31T01:14:00.038Z,0.60
2022-12-31T01:16:30.375Z,1.00
2022-12-31T01:18:59.816Z,0.60
2022-12-31T01:21:28.035Z,0.63
2022-12-31T01:23:56.090Z,0.60
2022-12-31T01:26:24.278Z,0.60
2022-12-31T01:28:53.878Z,0.70
2022-12-31T01:31:23.525Z,0.70
2022-12-31T01:33:52.342Z,0.70
2022-12-31T01:36:26.019Z,1.70
2022-12-31T01:38:56.534Z,0.60
2022-12-31T01:41:26.311Z,0.70
2022-12-31T01:43:57.500Z,0.60
2022-12-31T01:46:29.791Z,0.60
2022-12-31T01:49:00.164Z,0.70
2022-12-31T01:51:30.999Z,1.30
2022-12-31T01:53:59.966Z,0.60
2022-12-31T01:56:28.098Z,0.73
2022-12-31T01:58:58.118Z,0.70
2022-12-31T02:01:29.715Z,0.90
2022-12-31T02:03:58.212Z,0.60
2022-12-31T02:06:30.488Z,0.60
2022-12-31T02:08:59.258Z,0.60
2022-12-31T02:11:29.503Z,0.60
2022-12-31T02:14:01.886Z,0.70
2022-12-31T02:16:35.845Z,0.70
2022-12-31T02:19:13.927Z,0.60
2022-12-31T02:21:48.739Z,0.60
2022-12-31T02:24:44.928Z,0.60
2022-12-31T02:27:15.578Z,0.60
2022-12-31T02:30:07.257Z,0.60
2022-12-31T02:32:56.012Z,0.70
2022-12-31T02:35:28.382Z,0.60
2022-12-31T02:38:01.545Z,0.60
2022-12-31T02:40:29.753Z,0.60
2022-12-31T02:42:57.920Z,0.70
2022-12-31T02:45:31.186Z,0.60
2022-12-31T02:48:11.332Z,0.70
2022-12-31T02:50:55.694Z,0.60
2022-12-31T02:53:38.217Z,0.60
2022-12-31T02:56:32.599Z,0.60
2022-12-31T02:59:21.839Z,0.70
2022-12-31T03:02:12.173Z,0.90
2022-12-31T03:04:41.421Z,0.60
2022-12-31T03:07:11.002Z,0.60
2022-12-31T03:09:39.468Z,0.80
2022-12-31T03:12:26.808Z,0.70
2022-12-31T03:14:54.955Z,1.37
2022-12-31T03:17:24.765Z,0.60
2022-12-31T03:20:10.573Z,0.60
2022-12-31T03:22:41.726Z,0.60
2022-12-31T03:25:30.518Z,0.70
2022-12-31T03:27:58.843Z,1.03
2022-12-31T03:30:27.139Z,0.70
2022-12-31T03:32:57.388Z,0.60
2022-12-31T03:35:27.180Z,0.60
2022-12-31T03:37:56.480Z,0.60
2022-12-31T03:40:26.523Z,0.60
2022-12-31T03:42:55.173Z,0.60
2022-12-31T03:45:23.614Z,0.70
2022-12-31T03:47:52.188Z,0.60
2022-12-31T03:50:22.088Z,0.70
2022-12-31T03:52:50.260Z,0.60
2022-12-31T03:55:18.573Z,0.60
2022-12-31T03:57:46.792Z,0.60
2022-12-31T04:00:18.736Z,0.70
2022-12-31T04:02:47.951Z,0.97
2022-12-31T04:05:17.267Z,0.60
2022-12-31T04:07:47.057Z,0.60
2022-12-31T04:10:17.718Z,0.60
2022-12-31T04:12:46.765Z,0.60
2022-12-31T04:15:18.125Z,0.60
2022-12-31T04:17:46.327Z,0.73
2022-12-31T04:20:14.533Z,0.60
2022-12-31T04:22:44.066Z,0.60
2022-12-31T04:25:13.979Z,0.60
2022-12-31T04:27:43.797Z,0.60
2022-12-31T04:30:13.853Z,0.60
2022-12-31T04:32:42.804Z,0.70
2022-12-31T04:35:11.834Z,0.60
2022-12-31T04:37:40.030Z,0.60
2022-12-31T04:40:09.916Z,0.60
2022-12-31T04:42:39.933Z,0.60
2022-12-31T04:45:09.194Z,0.60
2022-12-31T04:47:46.637Z,0.70
2022-12-31T04:50:14.838Z,0.60
2022-12-31T04:52:43.240Z,0.60
2022-12-31T04:55:11.913Z,0.63
2022-12-31T04:57:42.117Z,0.60
2022-12-31T05:00:11.298Z,0.67
2022-12-31T05:02:39.808Z,0.60
2022-12-31T05:05:08.769Z,0.60
2022-12-31T05:07:36.875Z,0.70
2022-12-31T05:10:05.946Z,0.60
2022-12-31T05:12:34.139Z,0.63
2022-12-31T05:15:04.026Z,0.60
2022-12-31T05:17:32.351Z,0.60
2022-12-31T05:20:00.513Z,0.60
2022-12-31T05:22:32.062Z,0.60
2022-12-31T05:25:00.901Z,0.70
2022-12-31T05:27:31.249Z,0.70
2022-12-31T05:29:59.777Z,0.60
2022-12-31T05:32:29.287Z,0.70
2022-12-31T05:34:57.899Z,0.60
2022-12-31T05:37:25.996Z,0.60
2022-12-31T05:39:54.086Z,0.60
2022-12-31T05:42:22.247Z,0.70
2022-12-31T05:44:50.614Z,0.70
2022-12-31T05:47:19.003Z,0.60
2022-12-31T05:49:48.429Z,0.70
2022-12-31T05:52:16.790Z,0.60
2022-12-31T05:54:44.863Z,0.60
2022-12-31T05:57:13.363Z,0.60
2022-12-31T05:59:41.661Z,0.60
2022-12-31T06:02:09.991Z,0.60
2022-12-31T06:04:38.107Z,0.60
2022-12-31T06:07:07.644Z,0.67
2022-12-31T06:09:35.751Z,0.60
2022-12-31T06:12:03.985Z,0.70
2022-12-31T06:14:32.316Z,0.80
2022-12-31T06:17:00.892Z,0.60
2022-12-31T06:19:29.087Z,0.80
2022-12-31T06:21:57.421Z,0.60
2022-12-31T06:24:26.934Z,0.70
2022-12-31T06:26:55.030Z,0.60
2022-12-31T06:29:23.142Z,1.00
2022-12-31T06:31:51.314Z,0.60
2022-12-31T06:34:19.629Z,1.40
2022-12-31T06:36:47.707Z,0.60
2022-12-31T06:39:15.935Z,0.60
2022-12-31T06:41:45.387Z,1.23
2022-12-31T06:44:14.908Z,0.70
2022-12-31T06:46:43.045Z,0.70
2022-12-31T06:49:11.382Z,0.60
2022-12-31T06:51:39.451Z,0.70
2022-12-31T06:54:07.889Z,0.60
2022-12-31T06:56:36.922Z,0.60
2022-12-31T06:59:06.923Z,0.70
2022-12-31T07:01:47.157Z,0.80
2022-12-31T07:04:29.552Z,1.00
2022-12-31T07:07:05.063Z,0.70
2022-12-31T07:09:39.727Z,0.83
2022-12-31T07:12:15.251Z,0.70
2022-12-31T07:14:47.848Z,0.70
2022-12-31T07:17:23.924Z,0.70
2022-12-31T07:19:58.744Z,1.00
2022-12-31T07:22:27.603Z,0.80
2022-12-31T07:24:56.411Z,0.70
2022-12-31T07:27:37.392Z,0.60
2022-12-31T07:30:12.868Z,0.77
2022-12-31T07:33:04.016Z,0.70
2022-12-31T07:35:38.662Z,0.70
2022-12-31T07:38:11.797Z,0.60
2022-12-31T07:40:53.181Z,0.80
2022-12-31T07:43:30.048Z,0.80
2022-12-31T07:46:07.488Z,0.90
2022-12-31T07:48:36.032Z,0.70
2022-12-31T07:51:04.769Z,1.10
2022-12-31T07:53:33.333Z,0.70
2022-12-31T07:56:02.615Z,0.70
2022-12-31T07:58:47.212Z,0.60
2022-12-31T08:01:21.005Z,0.70
2022-12-31T08:03:54.322Z,0.73
2022-12-31T08:06:27.579Z,0.63
2022-12-31T08:09:01.512Z,1.00
2022-12-31T08:11:34.103Z,0.80
2022-12-31T08:14:02.732Z,2.30
2022-12-31T08:16:32.795Z,1.27
2022-12-31T08:19:01.295Z,0.70
2022-12-31T08:21:38.630Z,1.00
2022-12-31T08:24:15.087Z,0.87
2022-12-31T08:26:53.006Z,0.73
2022-12-31T08:29:31.718Z,0.80
2022-12-31T08:32:07.224Z,0.70
2022-12-31T08:34:40.152Z,0.70
2022-12-31T08:37:10.403Z,0.70
2022-12-31T08:39:51.167Z,1.40
2022-12-31T08:42:23.969Z,2.07
2022-12-31T08:44:59.339Z,1.60
2022-12-31T08:47:38.448Z,1.43
2022-12-31T08:50:08.473Z,1.00
2022-12-31T08:52:37.266Z,1.20
2022-12-31T08:55:06.596Z,0.90
2022-12-31T08:57:39.581Z,1.00
2022-12-31T09:00:10.763Z,0.90
2022-12-31T09:03:04.129Z,0.80
2022-12-31T09:05:34.174Z,0.60
2022-12-31T09:08:09.631Z,0.93
2022-12-31T09:10:42.294Z,0.70
2022-12-31T09:13:16.857Z,1.03
2022-12-31T09:15:48.755Z,0.70
2022-12-31T09:18:19.304Z,0.70
2022-12-31T09:20:47.989Z,0.70
2022-12-31T09:23:16.657Z,1.53
2022-12-31T09:25:58.800Z,0.70
2022-12-31T09:28:37.619Z,0.60
2022-12-31T09:31:12.377Z,0.70
2022-12-31T09:33:50.200Z,0.70
2022-12-31T09:36:20.728Z,1.03
2022-12-31T09:38:54.107Z,0.90
2022-12-31T09:41:57.999Z,0.70
2022-12-31T09:45:15.185Z,0.60
2022-12-31T09:48:09.795Z,0.60
2022-12-31T09:50:51.179Z,0.80
2022-12-31T09:53:47.755Z,0.70
2022-12-31T09:56:22.065Z,0.90
2022-12-31T09:58:59.122Z,0.70
2022-12-31T10:01:37.474Z,0.80
2022-12-31T10:04:26.011Z,0.70
2022-12-31T10:07:07.313Z,1.10
2022-12-31T10:09:51.739Z,1.10
2022-12-31T10:12:48.042Z,0.77
2022-12-31T10:15:47.959Z,0.70
2022-12-31T10:18:28.699Z,1.10
2022-12-31T10:21:07.540Z,0.80
2022-12-31T10:24:04.266Z,1.10
2022-12-31T10:26:44.066Z,1.10
2022-12-31T10:29:25.494Z,0.80
2022-12-31T10:32:07.823Z,0.70
2022-12-31T10:34:48.802Z,0.90
2022-12-31T10:37:19.152Z,1.30
2022-12-31T10:39:56.229Z,1.90
2022-12-31T10:42:59.865Z,0.60
2022-12-31T10:45:52.690Z,0.90
2022-12-31T10:49:05.179Z,1.10
2022-12-31T10:51:58.774Z,0.70
2022-12-31T10:55:14.393Z,2.43
2022-12-31T10:58:04.348Z,0.90
2022-12-31T11:00:36.528Z,1.70
2022-12-31T11:03:55.656Z,1.47
2022-12-31T11:07:14.726Z,1.10
2022-12-31T11:10:09.397Z,4.13
2022-12-31T11:13:16.173Z,3.30
2022-12-31T11:15:56.778Z,1.20
2022-12-31T11:18:30.675Z,1.47
2022-12-31T11:21:21.612Z,5.03
2022-12-31T11:23:59.632Z,2.30
2022-12-31T11:26:36.999Z,1.87
2022-12-31T11:29:14.349Z,1.00
2022-12-31T11:31:53.239Z,1.70
2022-12-31T11:34:32.814Z,1.83
2022-12-31T11:37:11.969Z,2.00
2022-12-31T11:39:48.495Z,1.67
2022-12-31T11:42:21.941Z,2.40
2022-12-31T11:44:58.927Z,2.20
2022-12-31T11:48:27.936Z,3.17
2022-12-31T11:50:43.856Z,3.30
2022-12-31T11:53:43.570Z,2.20
2022-12-31T11:56:17.337Z,2.03
2022-12-31T11:58:48.167Z,2.80
2022-12-31T12:01:21.918Z,1.30
2022-12-31T12:03:50.547Z,1.60
2022-12-31T12:06:20.898Z,1.53
2022-12-31T12:08:49.615Z,5.70
2022-12-31T12:11:21.001Z,1.93
2022-12-31T12:13:49.657Z,1.70
2022-12-31T12:16:21.470Z,2.27
2022-12-31T12:18:51.798Z,7.17
2022-12-31T12:21:22.301Z,2.43
2022-12-31T12:23:57.865Z,2.20
2022-12-31T12:26:34.409Z,2.20
2022-12-31T12:29:10.753Z,3.00
2022-12-31T12:31:40.447Z,2.67
2022-12-31T12:34:23.492Z,7.20
2022-12-31T12:36:51.786Z,1.57
2022-12-31T12:39:22.934Z,4.60
2022-12-31T12:42:02.385Z,2.50
2022-12-31T12:44:30.837Z,5.10
2022-12-31T12:47:00.800Z,4.80
2022-12-31T12:49:31.270Z,1.30
2022-12-31T12:52:19.106Z,0.70
2022-12-31T12:55:00.788Z,1.10
2022-12-31T12:57:37.845Z,0.90
2022-12-31T13:00:17.473Z,1.63
2022-12-31T13:03:03.362Z,0.70
2022-12-31T13:05:41.248Z,0.80
2022-12-31T13:08:20.647Z,1.00
2022-12-31T13:11:07.430Z,0.70
2022-12-31T13:13:41.727Z,1.10
2022-12-31T13:16:15.135Z,1.33
2022-12-31T13:18:54.303Z,1.50
2022-12-31T13:21:32.347Z,0.83
2022-12-31T13:24:08.080Z,1.70
2022-12-31T13:26:41.087Z,5.20
2022-12-31T13:29:15.083Z,1.00
2022-12-31T13:31:44.543Z,1.40
2022-12-31T13:34:15.875Z,1.00
2022-12-31T13:36:45.972Z,0.80
2022-12-31T13:39:17.345Z,0.90
2022-12-31T13:41:50.755Z,0.90
2022-12-31T13:44:28.636Z,0.90
2022-12-31T13:47:00.461Z,2.23
2022-12-31T13:49:33.300Z,1.40
2022-12-31T13:52:06.627Z,1.23
2022-12-31T13:54:39.558Z,2.00
2022-12-31T13:57:14.075Z,1.00
2022-12-31T13:59:44.546Z,1.90
2022-12-31T14:02:27.360Z,1.20
2022-12-31T14:05:01.319Z,1.30
2022-12-31T14:07:38.970Z,1.83
2022-12-31T14:10:14.571Z,4.07
2022-12-31T14:12:48.870Z,1.47
2022-12-31T14:15:25.338Z,1.17
2022-12-31T14:18:01.080Z,1.53
2022-12-31T14:20:36.101Z,0.97
2022-12-31T14:23:15.151Z,1.37
2022-12-31T14:25:48.626Z,2.50
2022-12-31T14:28:19.224Z,2.30
2022-12-31T14:30:52.015Z,2.00
2022-12-31T14:33:33.377Z,2.93
2022-12-31T14:36:18.738Z,1.93
2022-12-31T14:38:58.038Z,1.47
2022-12-31T14:41:44.692Z,1.60
2022-12-31T14:44:26.688Z,1.70
2022-12-31T14:47:03.947Z,2.17
2022-12-31T14:49:39.849Z,2.17
2022-12-31T14:52:22.456Z,1.47
2022-12-31T14:54:59.607Z,1.90
2022-12-31T14:57:54.343Z,2.87
2022-12-31T15:00:29.806Z,1.40
2022-12-31T15:02:59.661Z,1.13
2022-12-31T15:05:31.994Z,2.60
2022-12-31T15:08:31.028Z,2.90
2022-12-31T15:11:32.431Z,3.47
2022-12-31T15:14:23.340Z,4.67
2022-12-31T15:16:55.711Z,2.53
2022-12-31T15:20:01.598Z,2.70
2022-12-31T15:22:37.737Z,3.20
2022-12-31T15:25:22.585Z,3.33
2022-12-31T15:27:51.236Z,3.83
2022-12-31T15:30:35.250Z,1.97
2022-12-31T15:33:04.864Z,1.73
2022-12-31T15:35:35.012Z,2.20
2022-12-31T15:38:05.296Z,2.27
2022-12-31T15:40:43.816Z,1.30
2022-12-31T15:43:17.747Z,4.77
2022-12-31T15:45:48.244Z,3.40
2022-12-31T15:48:22.117Z,1.70
2022-12-31T15:50:50.993Z,4.43
2022-12-31T15:53:28.657Z,2.57
2022-12-31T15:55:59.933Z,5.00
2022-12-31T15:58:31.473Z,4.40
2022-12-31T16:01:11.592Z,4.57
2022-12-31T16:03:43.677Z,4.40
2022-12-31T16:06:13.390Z,2.77
2022-12-31T16:08:45.322Z,4.87
2022-12-31T16:11:14.988Z,5.90
2022-12-31T16:13:45.810Z,8.33
2022-12-31T16:16:22.214Z,8.90
2022-12-31T16:18:51.288Z,12.00
2022-12-31T16:21:40.648Z,9.33
2022-12-31T16:24:27.547Z,10.63
2022-12-31T16:26:58.543Z,9.33
2022-12-31T16:29:27.097Z,6.13
2022-12-31T16:31:55.344Z,5.40
2022-12-31T16:34:25.189Z,6.90
2022-12-31T16:36:57.512Z,10.10
2022-12-31T16:39:28.432Z,6.73
2022-12-31T16:42:19.615Z,9.67
2022-12-31T16:44:48.199Z,12.77
2022-12-31T16:47:20.213Z,8.77
2022-12-31T16:49:50.947Z,9.83
2022-12-31T16:52:27.568Z,8.10
2022-12-31T16:54:56.170Z,10.20
2022-12-31T16:57:27.860Z,8.40
2022-12-31T16:59:58.364Z,7.43
2022-12-31T17:02:29.726Z,8.23
2022-12-31T17:04:57.960Z,11.97
2022-12-31T17:07:28.207Z,15.20
2022-12-31T17:10:03.378Z,13.70
2022-12-31T17:13:00.672Z,8.83
2022-12-31T17:15:26.390Z,12.37
2022-12-31T17:17:56.353Z,15.13
2022-12-31T17:20:26.944Z,10.87
2022-12-31T17:22:57.915Z,13.20
2022-12-31T17:25:27.596Z,12.73
2022-12-31T17:28:00.199Z,12.43
2022-12-31T17:30:41.357Z,11.20
2022-12-31T17:33:30.988Z,11.57
2022-12-31T17:36:15.369Z,13.53
2022-12-31T17:38:43.689Z,17.30
2022-12-31T17:41:24.280Z,11.93
2022-12-31T17:43:55.799Z,9.87
2022-12-31T17:46:25.344Z,9.27
2022-12-31T17:48:56.155Z,14.20
2022-12-31T17:51:24.761Z,14.40
2022-12-31T17:53:52.913Z,11.47
2022-12-31T17:56:21.109Z,17.97
2022-12-31T17:58:51.598Z,18.70
2022-12-31T18:01:23.483Z,28.57
2022-12-31T18:03:52.595Z,24.27
2022-12-31T18:06:20.712Z,27.10
2022-12-31T18:08:48.872Z,25.20
2022-12-31T18:11:20.032Z,19.37
2022-12-31T18:13:48.351Z,21.97
2022-12-31T18:16:16.904Z,16.37
2022-12-31T18:18:46.752Z,17.03
2022-12-31T18:21:19.227Z,20.03
2022-12-31T18:23:48.230Z,22.67
2022-12-31T18:26:17.934Z,28.87
2022-12-31T18:28:46.531Z,25.77
2022-12-31T18:31:15.652Z,28.20
2022-12-31T18:33:43.827Z,24.50
2022-12-31T18:36:15.958Z,24.87
2022-12-31T18:38:44.002Z,24.90
2022-12-31T18:41:17.195Z,24.37
2022-12-31T18:43:45.287Z,23.87
2022-12-31T18:46:14.051Z,28.73
2022-12-31T18:48:42.601Z,24.17
2022-12-31T18:51:15.752Z,23.87
2022-12-31T18:53:43.827Z,22.97
2022-12-31T18:56:13.415Z,23.00
2022-12-31T18:58:41.695Z,18.10
2022-12-31T19:01:25.512Z,15.03
2022-12-31T19:03:54.063Z,16.77
2022-12-31T19:06:23.896Z,14.53
2022-12-31T19:08:52.993Z,13.67
2022-12-31T19:11:21.362Z,13.27
2022-12-31T19:13:49.781Z,8.23
2022-12-31T19:16:18.365Z,8.83
2022-12-31T19:18:47.483Z,4.23
2022-12-31T19:21:17.701Z,4.80
2022-12-31T19:23:47.630Z,6.30
2022-12-31T19:26:17.302Z,5.37
2022-12-31T19:28:46.500Z,6.27
2022-12-31T19:31:15.015Z,7.47
2022-12-31T19:33:43.303Z,4.77
2022-12-31T19:36:16.175Z,6.87
2022-12-31T19:38:44.786Z,4.73
2022-12-31T19:41:17.280Z,6.77
2022-12-31T19:43:45.380Z,7.50
2022-12-31T19:46:14.593Z,6.30
2022-12-31T19:48:42.857Z,6.67
2022-12-31T19:51:12.837Z,8.87
2022-12-31T19:53:40.927Z,8.83
2022-12-31T19:56:12.323Z,7.60
2022-12-31T19:58:41.759Z,7.17
2022-12-31T20:01:15.510Z,8.63
2022-12-31T20:03:43.672Z,6.60
2022-12-31T20:06:11.878Z,10.23
2022-12-31T20:08:43.343Z,8.53
2022-12-31T20:11:12.834Z,7.47
2022-12-31T20:13:42.938Z,12.20
2022-12-31T20:16:12.894Z,8.90
2022-12-31T20:18:42.241Z,6.97
2022-12-31T20:21:11.853Z,5.60
2022-12-31T20:23:40.007Z,8.97
2022-12-31T20:26:08.536Z,6.50
2022-12-31T20:28:36.906Z,7.57
2022-12-31T20:31:08.128Z,8.70
2022-12-31T20:33:36.324Z,10.87
2022-12-31T20:36:05.523Z,12.30
2022-12-31T20:38:33.884Z,15.47
2022-12-31T20:41:05.436Z,18.60
2022-12-31T20:43:34.299Z,21.57
2022-12-31T20:46:14.438Z,15.90
2022-12-31T20:48:43.710Z,18.83
2022-12-31T20:51:12.131Z,20.23
2022-12-31T20:53:40.279Z,29.30
2022-12-31T20:56:09.873Z,24.60
2022-12-31T20:58:38.544Z,24.57
2022-12-31T21:01:10.685Z,25.90
2022-12-31T21:06:29.895Z,24.03
2022-12-31T21:08:59.813Z,25.30
2022-12-31T21:11:45.539Z,29.33
2022-12-31T21:14:13.691Z,34.17
2022-12-31T21:16:43.574Z,26.00
2022-12-31T21:19:11.713Z,24.10
2022-12-31T21:21:40.004Z,26.23
2022-12-31T21:24:08.614Z,18.83
2022-12-31T21:26:37.065Z,26.57
2022-12-31T21:29:05.337Z,25.80
2022-12-31T21:31:33.532Z,22.60
2022-12-31T21:34:03.671Z,25.70
2022-12-31T21:36:32.252Z,25.87
2022-12-31T21:39:00.619Z,25.70
2022-12-31T21:41:46.634Z,25.30
2022-12-31T21:44:14.775Z,34.20
2022-12-31T21:47:15.854Z,25.63
2022-12-31T21:49:32.444Z,26.83
2022-12-31T21:52:18.104Z,24.70
2022-12-31T21:55:03.854Z,29.80
2022-12-31T21:57:46.225Z,32.57
2022-12-31T22:00:43.037Z,23.23
2022-12-31T22:03:31.805Z,19.40
2022-12-31T22:06:03.073Z,13.50
2022-12-31T22:08:32.236Z,13.07
2022-12-31T22:11:00.383Z,15.10
2022-12-31T22:13:28.689Z,9.63
2022-12-31T22:16:04.241Z,19.57
2022-12-31T22:18:35.531Z,10.20
2022-12-31T22:21:12.296Z,9.63
2022-12-31T22:23:47.078Z,20.70
2022-12-31T22:26:17.253Z,25.30
2022-12-31T22:28:46.543Z,31.90
2022-12-31T22:31:15.981Z,33.27
2022-12-31T22:33:44.506Z,36.33
2022-12-31T22:36:16.325Z,30.33
2022-12-31T22:38:44.942Z,33.07
2022-12-31T22:41:14.945Z,32.40
2022-12-31T22:43:44.677Z,34.10
2022-12-31T22:46:13.756Z,28.10
2022-12-31T22:48:42.676Z,20.97
2022-12-31T22:51:11.560Z,22.30
2022-12-31T22:53:43.493Z,17.07
2022-12-31T22:56:13.543Z,19.93
2022-12-31T22:58:42.466Z,15.73
2022-12-31T23:01:18.321Z,17.50
2022-12-31T23:03:47.247Z,15.70
2022-12-31T23:06:15.879Z,30.80
2022-12-31T23:09:07.108Z,45.00
2022-12-31T23:11:35.832Z,43.53
2022-12-31T23:14:22.729Z,53.10
2022-12-31T23:17:29.434Z,37.93
2022-12-31T23:20:14.044Z,34.47
2022-12-31T23:22:59.660Z,39.97
2022-12-31T23:25:29.228Z,35.10
2022-12-31T23:27:57.779Z,39.43
2022-12-31T23:30:26.260Z,35.03
2022-12-31T23:32:54.477Z,39.00
2022-12-31T23:35:22.845Z,38.60
2022-12-31T23:37:51.371Z,40.47
2022-12-31T23:40:21.790Z,32.53
2022-12-31T23:42:51.696Z,40.93
2022-12-31T23:45:19.866Z,37.67
2022-12-31T23:47:48.056Z,48.30
2022-12-31T23:50:16.506Z,42.47
2022-12-31T23:52:44.735Z,55.97
2022-12-31T23:55:12.860Z,85.50
2022-12-31T23:57:41.087Z,90.33
